METAR Analyzer

一覧表示

Hello, Guest. (Login)

RJTT/HND  -  東京/羽田

観測日時
2020-10-20 02:30 (UTC) (40分前)
気温
19
露点
11
湿数
8
相対湿度
59.7%
QNH
1025.1hPa
推定現地気圧
1024.4hPa
推定海面気圧
1025.1hPa
体感温度
11
(無風時)
19.3
HI
18.5
気温前日比
+1
体感温度前日比
+0.9
HI前日比
+1.2
水平視程
>10000m
鉛直視程
データなし
雲底高度
Unknown
V/I
判定不可
RVR
No RVR data
卓越風
9kt from 20°
ガスト
No gust
降水
報告なし
その他の天気
報告なし
少しの(1/8) 積雲 @ 3000ft AGL / 隙間のある雲 @ 不明な高さ

RJTT 200230Z 02009KT 9999 FEW030 BKN/// 19/11 Q1025 NOSIG RMK 1CU030 A3027

RJAA/NRT  -  東京/成田

観測日時
2020-10-20 02:30 (UTC) (40分前)
気温
20
露点
13
湿数
7
相対湿度
64%
QNH
1025.1hPa
推定現地気圧
1023.8hPa
推定海面気圧
1025.1hPa
体感温度
11.8
(無風時)
20.2
HI
19.7
気温前日比
+2
体感温度前日比
+0.2
HI前日比
+2.1
水平視程
>10000m
鉛直視程
データなし
雲底高度
Unknown
V/I
判定不可
RVR
No RVR data
卓越風
11kt from 20° (350° ~ 50°)
ガスト
No gust
降水
報告なし
その他の天気
報告なし
少しの(1/8) 積雲 @ 1500ft AGL / 隙間のある雲 @ 不明な高さ

RJAA 200230Z 02011KT 350V050 9999 FEW015 BKN/// 20/13 Q1025 NOSIG RMK 1CU015 A3027

RJTF  -  調布

観測日時
2020-10-20 02:00 (UTC) (70分前)
気温
18
露点
9
湿数
9
相対湿度
55.6%
QNH
1025hPa
推定現地気圧
1019.9hPa
推定海面気圧
1024.9hPa
体感温度
11
(無風時)
18.4
HI
17.3
気温前日比
+2
体感温度前日比
+2.3
HI前日比
+1.9
水平視程
>10000m
鉛直視程
データなし
雲底高度
Unknown
V/I
判定不可
RVR
No RVR data
卓越風
6kt from 30°
ガスト
No gust
降水
報告なし
その他の天気
報告なし
少しの雲 @ 3000ft AGL / 隙間のある雲 @ 不明な高さ

RJTF 200200Z 03006KT 9999 FEW030 BKN/// 18/09 Q1025

RJTI  -  東京ヘリポート

観測日時
2020-10-20 02:00 (UTC) (70分前)
気温
19
露点
10
湿数
9
相対湿度
55.9%
QNH
1025hPa
推定現地気圧
1024.4hPa
推定海面気圧
1025.0hPa
体感温度
11.3
(無風時)
19.2
HI
18.4
気温前日比
+1
体感温度前日比
+0.4
HI前日比
+1.2
水平視程
>10000m
鉛直視程
データなし
雲底高度
Unknown
V/I
判定不可
RVR
No RVR data
卓越風
8kt from 30° (300° ~ 80°)
ガスト
No gust
降水
報告なし
その他の天気
報告なし
少しの雲 @ 3000ft AGL / 隙間のある雲 @ 不明な高さ

RJTI 200200Z 03008KT 300V080 9999 FEW030 BKN/// 19/10 Q1025

RJTY/OKO  -  横田基地

観測日時
2020-10-20 02:56 (UTC) (14分前)
気温
17.7
露点
12.4
湿数
5.3
相対湿度
71.1%
QNH
1026.4hPa
推定現地気圧
1009.4hPa
推定海面気圧
1026.2hPa
体感温度
12
(無風時)
18.7
HI
17.4
気温前日比
+2.7
体感温度前日比
+2.6
HI前日比
+2.8
水平視程
>10SM
鉛直視程
データなし
雲底高度
No dense clouds
V/I
VMC (VFR)
RVR
No RVR data
卓越風
4kt from 90°
ガスト
No gust
降水
報告なし
その他の天気
報告なし
少しの雲 @ 18000ft AGL

RJTY 200256Z AUTO 09004KT 10SM FEW180 18/12 A3031 RMK AO2 SLP267 T01770124 57008 FZRANO $

RJTC  -  立川飛行場

観測日時
2020-10-20 02:00 (UTC) (70分前)
気温
18
露点
7
湿数
11
相対湿度
48.5%
QNH
1025.7hPa
推定現地気圧
1014.2hPa
推定海面気圧
1025.5hPa
体感温度
10.9
(無風時)
18.2
HI
17.1
気温前日比
+3
体感温度前日比
+2
HI前日比
+2.9
水平視程
>10000m
鉛直視程
データなし
雲底高度
20000ft AGL
V/I
VMC (VFR)
RVR
No RVR data
卓越風
6kt from 60° (30° ~ 90°)
ガスト
No gust
降水
報告なし
その他の天気
報告なし
少しの(1/8) 積雲 @ 3000ft AGL / 隙間のある(7/8) 巻雲 @ 20000ft AGL

RJTC 200200Z 06006KT 030V090 9999 FEW030 BKN200 18/07 Q1026 RMK 1CU030 7CI200 A3029

RJAI  -  市ヶ谷駐屯地/地区/基地

観測日時
2020-10-20 02:00 (UTC) (70分前)
気温
18
露点
8
湿数
10
相対湿度
52%
QNH
1026.1hPa
推定現地気圧
1026.1hPa
推定海面気圧
1026.1hPa
体感温度
13.9
(無風時)
18.3
HI
17.2
気温前日比
+1
体感温度前日比
+0.9
HI前日比
+1
水平視程
>10000m
鉛直視程
データなし
雲底高度
21000ft AGL
V/I
VMC (VFR)
RVR
No RVR data
卓越風
2kt from 170°
ガスト
No gust
降水
報告なし
その他の天気
報告なし
少しの(1/8) 積雲 @ 3000ft AGL / 隙間のある(7/8) 巻雲 @ 21000ft AGL

RJAI 200200Z 17002KT 9999 FEW030 BKN210 18/08 Q1026 RMK 1CU030 7CI210 A3030

RJTK  -  木更津駐屯地

観測日時
2020-10-20 02:00 (UTC) (70分前)
気温
17
露点
11
湿数
6
相対湿度
67.7%
QNH
1025.1hPa
推定現地気圧
1024.7hPa
推定海面気圧
1025.1hPa
体感温度
8.3
(無風時)
18.1
HI
16.5
気温前日比
±0
体感温度前日比
-0.3
HI前日比
+0.2
水平視程
>10000m
鉛直視程
データなし
雲底高度
18000ft AGL
V/I
VMC (VFR)
RVR
No RVR data
卓越風
10kt from 20°
ガスト
No gust
降水
報告なし
その他の天気
報告なし
少しの(1/8) 層積雲 @ 3000ft AGL / 隙間のある(5/8) 高積雲 @ 18000ft AGL / 隙間のある(7/8) 巻雲 @ 22000ft AGL

RJTK 200200Z 02010KT 9999 FEW030 BKN180 BKN220 17/11 Q1025 RMK 1SC030 5AC180 7CI220 A3027

RJTL  -  下総航空基地

観測日時
2020-10-20 02:00 (UTC) (70分前)
気温
17
露点
12
湿数
5
相対湿度
72.4%
QNH
1025.4hPa
推定現地気圧
1021.8hPa
推定海面気圧
1025.4hPa
体感温度
11.2
(無風時)
18.2
HI
16.6
気温前日比
±0
体感温度前日比
+0.7
HI前日比
±0
水平視程
>10000m
鉛直視程
データなし
雲底高度
Unknown
V/I
判定不可
RVR
No RVR data
卓越風
4kt from 360° (310° ~ 60°)
ガスト
No gust
降水
報告なし
その他の天気
報告なし
少しの(1/8) 積雲 @ 3000ft AGL / 隙間のある雲 @ 不明な高さ

RJTL 200200Z 36004KT 310V060 9999 FEW030 BKN/// 17/12 Q1025 RMK 1CU030 A3028

RJTE  -  館山航空基地

観測日時
2020-10-20 02:00 (UTC) (70分前)
気温
19
露点
11
湿数
8
相対湿度
59.7%
QNH
1024.7hPa
推定現地気圧
1024.3hPa
推定海面気圧
1024.7hPa
体感温度
11
(無風時)
19.3
HI
18.5
気温前日比
+2
体感温度前日比
+0.5
HI前日比
+2
水平視程
>10000m
鉛直視程
データなし
雲底高度
15000ft AGL
V/I
VMC (VFR)
RVR
No RVR data
卓越風
9kt from 30°
ガスト
No gust
降水
報告なし
その他の天気
報告なし
少しの(1/8) 積雲 @ 3000ft AGL / 隙間のある(5/8) 高積雲 @ 15000ft AGL / 隙間のある雲 @ 23000ft AGL

RJTE 200200Z 03009KT 9999 FEW030 BKN150 BKN230 19/11 Q1024 RMK 1CU030 5AC150 A3026

RJTA/NJA  -  厚木海軍飛行場

観測日時
2020-10-20 02:00 (UTC) (70分前)
気温
19
露点
8
湿数
11
相対湿度
48.8%
QNH
1025.7hPa
推定現地気圧
1018.2hPa
推定海面気圧
1025.6hPa
体感温度
10
(無風時)
18.9
HI
18.2
気温前日比
+2
体感温度前日比
+0.1
HI前日比
+1.9
水平視程
>10000m
鉛直視程
データなし
雲底高度
20000ft AGL
V/I
VMC (VFR)
RVR
No RVR data
卓越風
13kt from 10°
ガスト
No gust
降水
報告なし
その他の天気
報告なし
少しの(1/8) 積雲 @ 3000ft AGL / 隙間のある雲 @ 20000ft AGL / 隙間のある雲 @ 不明な高さ

RJTA 200200Z 01013KT 9999 FEW030 BKN200 BKN/// 19/08 Q1025 RMK 1CU030 A3029

RJTR  -  キャンプ座間

観測日時
2020-10-20 01:58 (UTC) (72分前)
気温
18.2
露点
8.7
湿数
9.5
相対湿度
53.8%
QNH
1025.1hPa
推定現地気圧
1011.6hPa
推定海面気圧
1024.9hPa
体感温度
10.7
(無風時)
18.5
HI
17.5
気温前日比
+1.8
体感温度前日比
+0.2
HI前日比
+1.8
水平視程
9SM
鉛直視程
データなし
雲底高度
19000ft AGL
V/I
VMC (VFR)
RVR
No RVR data
卓越風
7kt from 340°
ガスト
No gust
降水
報告なし
その他の天気
報告なし
隙間のある雲 @ 19000ft AGL

RJTR 200158Z AUTO 34007KT 9SM BKN190 18/09 A3027 RMK AO2 SLP253 T01820087 $

RJAH/IBR  -  茨城(百里基地)

観測日時
2020-10-20 02:00 (UTC) (70分前)
気温
19
露点
11
湿数
8
相対湿度
59.7%
QNH
1025hPa
推定現地気圧
1021.0hPa
推定海面気圧
1024.9hPa
体感温度
11.7
(無風時)
19.3
HI
18.5
気温前日比
±0
体感温度前日比
-3.4
HI前日比
-0.1
水平視程
>10000m
鉛直視程
データなし
雲底高度
23000ft AGL
V/I
VMC (VFR)
RVR
No RVR data
卓越風
7kt from 30° (350° ~ 70°)
ガスト
No gust
降水
報告なし
その他の天気
報告なし
少しの雲 @ 3000ft AGL / 隙間のある雲 @ 23000ft AGL

RJAH 200200Z 03007KT 350V070 9999 FEW030 BKN230 19/11 Q1025

RJAK  -  霞ヶ浦駐屯地

観測日時
2020-10-20 02:00 (UTC) (70分前)
気温
19
露点
11
湿数
8
相対湿度
59.7%
QNH
1025.7hPa
推定現地気圧
1022.5hPa
推定海面気圧
1025.6hPa
体感温度
13.3
(無風時)
19.3
HI
18.5
気温前日比
+1
体感温度前日比
+0.3
HI前日比
+1.1
水平視程
>10000m
鉛直視程
データなし
雲底高度
23000ft AGL
V/I
VMC (VFR)
RVR
No RVR data
卓越風
4kt from 340°
ガスト
No gust
降水
報告なし
その他の天気
報告なし
少しの(1/8) 積雲 @ 3000ft AGL / 隙間のある(7/8) 巻雲 @ 23000ft AGL

RJAK 200200Z 34004KT 9999 FEW030 BKN230 19/11 Q1025 RMK 1CU030 7CI230 A3029

RJTU/QUT  -  北宇都宮駐屯地

観測日時
2020-10-20 02:00 (UTC) (70分前)
気温
19
露点
8
湿数
11
相対湿度
48.8%
QNH
1026.1hPa
推定現地気圧
1013.8hPa
推定海面気圧
1025.9hPa
体感温度
12.5
(無風時)
18.9
HI
18.2
気温前日比
+3
体感温度前日比
-1.2
HI前日比
+3
水平視程
>10000m
鉛直視程
データなし
雲底高度
23000ft AGL
V/I
VMC (VFR)
RVR
No RVR data
卓越風
5kt from 20°
ガスト
No gust
降水
報告なし
その他の天気
報告なし
少しの(1/8) 積雲 @ 3000ft AGL / 隙間のある(6/8) 巻雲 @ 23000ft AGL

RJTU 200200Z 02005KT 9999 FEW030 BKN230 19/08 Q1026 RMK 1CU030 6CI230 A3030

RJTS  -  相馬原駐屯地

観測日時
2020-10-20 02:00 (UTC) (70分前)
気温
18
露点
8
湿数
10
相対湿度
52%
QNH
1025.1hPa
推定現地気圧
977.7hPa
推定海面気圧
1024.2hPa
体感温度
12.1
(無風時)
18.3
HI
17.2
気温前日比
+4
体感温度前日比
+0.1
HI前日比
+3.9
水平視程
>10000m
鉛直視程
データなし
雲底高度
No dense clouds
V/I
VMC (VFR)
RVR
No RVR data
卓越風
4kt from 220°
ガスト
No gust
降水
報告なし
その他の天気
報告なし
少しの(1/8) 層積雲 @ 4000ft AGL / 散在する(3/8) 巻雲 @ 20000ft AGL

RJTS 200200Z 22004KT 9999 FEW040 SCT200 18/08 Q1025 RMK 1SC040 3CI200 A3027

RJTJ  -  入間飛行場

観測日時
2020-10-20 02:00 (UTC) (70分前)
気温
17
露点
11
湿数
6
相対湿度
67.7%
QNH
1025.7hPa
推定現地気圧
1014.8hPa
推定海面気圧
1025.6hPa
体感温度
11.2
(無風時)
18.1
HI
16.5
気温前日比
+2
体感温度前日比
+2.3
HI前日比
+2.1
水平視程
>10000m
鉛直視程
データなし
雲底高度
23000ft AGL
V/I
VMC (VFR)
RVR
No RVR data
卓越風
4kt from 10° (330° ~ 70°)
ガスト
No gust
降水
報告なし
その他の天気
報告なし
少しの(1/8) 積雲 @ 3000ft AGL / 隙間のある雲 @ 23000ft AGL

RJTJ 200200Z 01004KT 330V070 9999 FEW030 BKN230 17/11 Q1025 RMK 1CU030 A3029

株式会社マネーパートナーズ 【Manepa Card】

RJTO/OIM  -  大島

観測日時
2020-10-20 02:00 (UTC) (70分前)
気温
19
露点
12
湿数
7
相対湿度
63.8%
QNH
1024hPa
推定現地気圧
1019.4hPa
推定海面気圧
1023.9hPa
体感温度
9.4
(無風時)
19.5
HI
18.6
気温前日比
+1
体感温度前日比
+0.4
HI前日比
+1
水平視程
>10000m
鉛直視程
データなし
雲底高度
18000ft AGL
V/I
VMC (VFR)
RVR
No RVR data
卓越風
17kt from 40°
ガスト
No gust
降水
報告なし
その他の天気
報告なし
少しの雲 @ 2500ft AGL / 隙間のある雲 @ 18000ft AGL / 隙間のある雲 @ 不明な高さ

RJTO 200200Z 04017KT 9999 FEW025 BKN180 BKN/// 19/12 Q1024

RJTH/HAC  -  八丈島

観測日時
2020-10-20 02:00 (UTC) (70分前)
気温
21
露点
17
湿数
4
相対湿度
77.9%
QNH
1021.3hPa
推定現地気圧
1010.2hPa
推定海面気圧
1021.0hPa
体感温度
12.7
(無風時)
21.6
HI
21.2
気温前日比
+1
体感温度前日比
+1.9
HI前日比
+0.5
水平視程
>10000m
鉛直視程
データなし
雲底高度
4500ft AGL
V/I
VMC (VFR)
RVR
No RVR data
卓越風
14kt from 50°
ガスト
No gust
降水
報告なし
その他の天気
報告なし
少しの雲 @ 2500ft AGL / 散在する雲 @ 3600ft AGL / 隙間のある雲 @ 4500ft AGL

RJTH 200200Z 05014KT 9999 FEW025 SCT036 BKN045 21/17 Q1021 RMK A3016

RJAN  -  新島

観測日時
2020-10-20 02:00 (UTC) (70分前)
気温
21
露点
12
湿数
9
相対湿度
56.4%
QNH
1023.4hPa
推定現地気圧
1019.9hPa
推定海面気圧
1023.3hPa
体感温度
12.9
(無風時)
20.7
HI
20.6
気温前日比
+2
体感温度前日比
+1.4
HI前日比
+1.7
水平視程
>10000m
鉛直視程
データなし
雲底高度
No dense clouds
V/I
VMC (VFR)
RVR
No RVR data
卓越風
11kt from 60°
ガスト
24kt
降水
報告なし
その他の天気
報告なし
報告なし

RJAN 200200Z 06011G24KT CAVOK 21/12 Q1023 RMK A3022

株式会社マネーパートナーズ 【Manepa Card】

RJAZ  -  神津島

観測日時
2020-10-20 02:00 (UTC) (70分前)
気温
19
露点
11
湿数
8
相対湿度
59.7%
QNH
1023.4hPa
推定現地気圧
1006.8hPa
推定海面気圧
1023.1hPa
体感温度
10.3
(無風時)
19.3
HI
18.5
気温前日比
+1
体感温度前日比
-0.4
HI前日比
+0.6
水平視程
>10000m
鉛直視程
データなし
雲底高度
No dense clouds
V/I
VMC (VFR)
RVR
No RVR data
卓越風
12kt from 40°
ガスト
23kt
降水
報告なし
その他の天気
報告なし
報告なし

RJAZ 200200Z 04012G23KT CAVOK 19/11 Q1023 RMK A3022

RJTQ/MYE  -  三宅島

観測日時
2020-10-20 02:00 (UTC) (70分前)
気温
22
露点
14
湿数
8
相対湿度
60.5%
QNH
1022.7hPa
推定現地気圧
1020.3hPa
推定海面気圧
1022.7hPa
体感温度
13.1
(無風時)
21.6
HI
21.8
気温前日比
+3
体感温度前日比
+3.1
HI前日比
+2.5
水平視程
>10000m
鉛直視程
データなし
雲底高度
No dense clouds
V/I
VMC (VFR)
RVR
No RVR data
卓越風
19kt from 40°
ガスト
No gust
降水
報告なし
その他の天気
報告なし
少しの雲 @ 3500ft AGL / 散在する雲 @ 不明な高さ

RJTQ 200200Z 04019KT 9999 FEW035 SCTXXX 22/14 Q1022 RMK A3020

RJAW/IWO  -  硫黄島分屯基地

観測日時
2020-10-20 02:41 (UTC) (29分前)
気温
28
露点
26
湿数
2
相対湿度
88.9%
QNH
1011.9hPa
推定現地気圧
997.8hPa
推定海面気圧
1011.2hPa
体感温度
23.3
(無風時)
28.1
HI
33.8
気温前日比
データなし
体感温度前日比
データなし
HI前日比
データなし
水平視程
>10000m
鉛直視程
データなし
雲底高度
1500ft AGL
V/I
VMC (VFR)
RVR
No RVR data
卓越風
11kt from 170°
ガスト
No gust
降水
しゅう雨性の (周辺において)
その他の天気
報告なし
隙間のある(5/8) 積雲 @ 1500ft AGL / 隙間のある雲 @ 23000ft AGL

RJAW 200241Z 17011KT 9999 VCSH BKN015 BKN230 28/26 Q1011 RMK 5CU015 A2988

13.5msec